createdAt,value
2022-07-27T00:01:38.523Z,22.50
2022-07-27T00:04:08.970Z,22.50
2022-07-27T00:06:39.785Z,22.40
2022-07-27T00:09:10.363Z,22.60
2022-07-27T00:11:40.979Z,22.50
2022-07-27T00:14:11.368Z,22.60
2022-07-27T00:16:41.762Z,22.50
2022-07-27T00:19:12.165Z,22.50
2022-07-27T00:21:46.238Z,22.50
2022-07-27T00:24:16.815Z,22.50
2022-07-27T00:26:47.207Z,22.60
2022-07-27T00:29:17.422Z,22.50
2022-07-27T00:31:47.774Z,22.60
2022-07-27T00:34:18.555Z,22.50
2022-07-27T00:36:48.900Z,22.60
2022-07-27T00:39:19.412Z,22.60
2022-07-27T00:41:49.746Z,22.60
2022-07-27T00:44:31.161Z,22.60
2022-07-27T00:47:02.368Z,22.60
2022-07-27T00:49:32.717Z,22.70
2022-07-27T00:52:06.445Z,22.60
2022-07-27T00:54:37.401Z,22.80
2022-07-27T00:57:07.721Z,22.60
2022-07-27T00:59:38.086Z,22.80
2022-07-27T01:02:12.180Z,22.70
2022-07-27T01:04:42.839Z,22.80
2022-07-27T01:07:17.191Z,22.70
2022-07-27T01:10:00.106Z,22.80
2022-07-27T01:12:42.391Z,22.70
2022-07-27T01:15:13.861Z,22.80
2022-07-27T01:17:44.261Z,22.80
2022-07-27T01:20:14.854Z,22.90
2022-07-27T01:22:51.271Z,22.90
2022-07-27T01:25:21.469Z,22.80
2022-07-27T01:27:51.765Z,22.80
2022-07-27T01:30:32.027Z,22.80
2022-07-27T01:33:07.238Z,22.90
2022-07-27T01:35:39.112Z,22.80
2022-07-27T01:38:23.330Z,22.90
2022-07-27T01:40:55.192Z,22.90
2022-07-27T01:43:26.083Z,22.90
2022-07-27T01:45:56.377Z,22.80
2022-07-27T01:48:26.566Z,23.00
2022-07-27T01:50:57.007Z,22.90
2022-07-27T01:53:27.332Z,22.90
2022-07-27T01:55:57.530Z,22.90
2022-07-27T01:58:28.556Z,22.80
2022-07-27T02:00:58.806Z,23.00
2022-07-27T02:03:29.048Z,22.90
2022-07-27T02:05:59.350Z,23.00
2022-07-27T02:08:30.205Z,22.90
2022-07-27T02:11:21.122Z,23.00
2022-07-27T02:13:52.486Z,23.00
2022-07-27T02:16:22.943Z,23.00
2022-07-27T02:18:54.823Z,23.00
2022-07-27T02:21:25.032Z,22.90
2022-07-27T02:23:55.335Z,22.80
2022-07-27T02:26:26.153Z,22.70
2022-07-27T02:28:56.328Z,22.60
2022-07-27T02:31:26.902Z,22.50
2022-07-27T02:34:03.385Z,22.50
2022-07-27T02:36:33.627Z,22.40
2022-07-27T02:39:03.882Z,22.40
2022-07-27T02:41:34.049Z,22.30
2022-07-27T02:44:04.232Z,22.30
2022-07-27T02:46:34.467Z,22.20
2022-07-27T02:49:04.818Z,22.20
2022-07-27T02:51:35.257Z,22.20
2022-07-27T02:54:06.515Z,22.10
2022-07-27T02:56:36.791Z,22.10
2022-07-27T02:59:06.984Z,22.10
2022-07-27T03:01:37.194Z,22.00
2022-07-27T03:04:07.779Z,22.00
2022-07-27T03:06:38.072Z,22.00
2022-07-27T03:09:08.650Z,21.90
2022-07-27T03:11:39.067Z,21.90
2022-07-27T03:14:09.456Z,21.90
2022-07-27T03:16:39.620Z,21.80
2022-07-27T03:19:10.166Z,21.80
2022-07-27T03:21:40.680Z,21.80
2022-07-27T03:24:11.001Z,21.70
2022-07-27T03:26:41.302Z,21.70
2022-07-27T03:29:11.832Z,21.70
2022-07-27T03:31:42.545Z,21.70
2022-07-27T03:34:12.670Z,21.60
2022-07-27T03:36:42.807Z,21.60
2022-07-27T03:39:14.584Z,21.60
2022-07-27T03:41:44.996Z,21.60
2022-07-27T03:44:15.209Z,21.60
2022-07-27T03:46:45.419Z,21.50
2022-07-27T03:49:15.770Z,21.50
2022-07-27T03:51:46.329Z,21.50
2022-07-27T03:54:16.737Z,21.40
2022-07-27T03:56:47.620Z,21.50
2022-07-27T03:59:17.861Z,21.50
2022-07-27T04:01:48.106Z,21.50
2022-07-27T04:04:18.366Z,21.40
2022-07-27T04:06:49.460Z,21.40
2022-07-27T04:09:20.501Z,21.40
2022-07-27T04:11:51.625Z,21.40
2022-07-27T04:14:22.620Z,21.40
2022-07-27T04:16:53.203Z,21.40
2022-07-27T04:19:23.491Z,21.40
2022-07-27T04:21:53.808Z,21.40
2022-07-27T04:24:24.261Z,21.30
2022-07-27T04:26:54.720Z,21.30
2022-07-27T04:29:25.162Z,21.30
2022-07-27T04:31:55.590Z,21.30
2022-07-27T04:34:26.828Z,21.30
2022-07-27T04:36:57.066Z,21.30
2022-07-27T04:39:27.975Z,21.30
2022-07-27T04:41:58.195Z,21.30
2022-07-27T04:44:28.368Z,21.30
2022-07-27T04:46:58.570Z,21.30
2022-07-27T04:49:29.098Z,21.30
2022-07-27T04:51:59.448Z,21.30
2022-07-27T04:54:29.564Z,21.30
2022-07-27T04:56:59.942Z,21.30
2022-07-27T04:59:30.580Z,21.20
2022-07-27T05:02:00.837Z,21.20
2022-07-27T05:04:31.262Z,21.20
2022-07-27T05:07:01.613Z,21.20
2022-07-27T05:09:31.872Z,21.20
2022-07-27T05:12:02.156Z,21.20
2022-07-27T05:14:32.432Z,21.20
2022-07-27T05:17:02.642Z,21.20
2022-07-27T05:19:39.991Z,21.20
2022-07-27T05:22:12.240Z,21.30
2022-07-27T05:24:42.467Z,21.20
2022-07-27T05:27:14.059Z,21.20
2022-07-27T05:29:44.240Z,21.20
2022-07-27T05:32:14.538Z,21.20
2022-07-27T05:34:45.208Z,21.20
2022-07-27T05:37:15.633Z,21.20
2022-07-27T05:39:45.941Z,21.10
2022-07-27T05:42:16.128Z,21.10
2022-07-27T05:44:46.395Z,21.10
2022-07-27T05:47:16.870Z,21.10
2022-07-27T05:49:47.011Z,21.10
2022-07-27T05:52:18.722Z,21.20
2022-07-27T05:54:49.675Z,21.20
2022-07-27T05:57:19.977Z,21.20
2022-07-27T05:59:50.617Z,21.20
2022-07-27T06:02:20.793Z,21.20
2022-07-27T06:04:51.065Z,21.20
2022-07-27T06:07:39.223Z,21.20
2022-07-27T06:10:09.946Z,21.20
2022-07-27T06:12:42.856Z,21.20
2022-07-27T06:15:15.326Z,21.20
2022-07-27T06:17:48.439Z,21.20
2022-07-27T06:20:18.683Z,21.20
2022-07-27T06:22:54.197Z,21.20
2022-07-27T06:25:34.402Z,21.20
2022-07-27T06:28:07.487Z,21.10
2022-07-27T06:30:37.797Z,21.10
2022-07-27T06:33:08.542Z,21.10
2022-07-27T06:35:38.993Z,21.10
2022-07-27T06:38:11.171Z,21.10
2022-07-27T06:40:41.771Z,21.10
2022-07-27T06:43:12.049Z,21.20
2022-07-27T06:45:42.297Z,21.10
2022-07-27T06:48:13.310Z,21.10
2022-07-27T06:50:43.673Z,21.10
2022-07-27T06:53:15.637Z,21.10
2022-07-27T06:55:49.322Z,21.10
2022-07-27T06:58:19.876Z,21.10
2022-07-27T07:00:50.153Z,21.10
2022-07-27T07:03:20.955Z,21.10
2022-07-27T07:05:51.197Z,21.10
2022-07-27T07:08:34.956Z,21.10
2022-07-27T07:11:06.047Z,21.10
2022-07-27T07:14:31.562Z,21.10
2022-07-27T07:17:03.296Z,21.10
2022-07-27T07:19:33.651Z,21.10
2022-07-27T07:22:04.028Z,21.00
2022-07-27T07:24:35.031Z,21.00
2022-07-27T07:27:05.404Z,21.00
2022-07-27T07:29:35.933Z,21.00
2022-07-27T07:32:06.391Z,21.00
2022-07-27T07:34:36.615Z,21.00
2022-07-27T07:37:07.312Z,20.90
2022-07-27T07:39:38.757Z,20.90
2022-07-27T07:42:11.120Z,20.90
2022-07-27T07:44:41.909Z,20.90
2022-07-27T07:47:12.265Z,20.90
2022-07-27T07:49:42.850Z,20.90
2022-07-27T07:52:13.121Z,20.90
2022-07-27T07:54:43.661Z,20.90
2022-07-27T07:57:13.938Z,20.90
2022-07-27T07:59:44.329Z,20.90
2022-07-27T08:02:14.736Z,20.90
2022-07-27T08:04:45.500Z,20.80
2022-07-27T08:07:15.778Z,20.80
2022-07-27T08:09:46.597Z,20.90
2022-07-27T08:12:16.887Z,20.80
2022-07-27T08:14:47.402Z,20.80
2022-07-27T08:17:18.754Z,20.80
2022-07-27T08:19:49.130Z,20.80
2022-07-27T08:22:19.329Z,20.80
2022-07-27T08:24:49.591Z,20.80
2022-07-27T08:27:20.208Z,20.80
2022-07-27T08:29:51.778Z,20.80
2022-07-27T08:32:23.096Z,20.80
2022-07-27T08:34:59.511Z,20.80
2022-07-27T08:37:29.731Z,20.80
2022-07-27T08:42:51.137Z,20.80
2022-07-27T08:45:23.509Z,20.80
2022-07-27T08:47:54.601Z,20.80
2022-07-27T08:50:25.670Z,20.80
2022-07-27T08:53:04.756Z,20.80
2022-07-27T08:55:40.300Z,20.80
2022-07-27T08:58:11.523Z,20.70
2022-07-27T09:00:48.065Z,20.70
2022-07-27T09:06:02.486Z,20.70
2022-07-27T09:08:35.301Z,20.70
2022-07-27T09:11:17.319Z,20.70
2022-07-27T09:13:47.670Z,20.70
2022-07-27T09:16:19.668Z,20.70
2022-07-27T09:19:00.319Z,20.70
2022-07-27T09:21:30.859Z,20.70
2022-07-27T09:24:36.752Z,20.70
2022-07-27T09:27:07.267Z,20.70
2022-07-27T09:29:38.436Z,20.70
2022-07-27T09:32:20.680Z,20.70
2022-07-27T09:34:50.989Z,20.70
2022-07-27T09:37:31.009Z,20.60
2022-07-27T09:40:15.173Z,20.70
2022-07-27T09:43:06.675Z,20.70
2022-07-27T09:45:38.219Z,20.60
2022-07-27T09:48:20.646Z,20.60
2022-07-27T09:54:13.651Z,20.60
2022-07-27T09:56:44.496Z,20.60
2022-07-27T09:59:21.280Z,20.60
2022-07-27T10:01:54.707Z,20.60
2022-07-27T10:04:25.903Z,20.60
2022-07-27T10:07:08.139Z,20.60
2022-07-27T10:09:41.350Z,20.50
2022-07-27T10:12:12.134Z,20.50
2022-07-27T10:14:42.392Z,20.50
2022-07-27T10:17:13.318Z,20.50
2022-07-27T10:19:53.746Z,20.60
2022-07-27T10:22:58.584Z,20.60
2022-07-27T10:25:37.493Z,20.50
2022-07-27T10:28:16.675Z,20.50
2022-07-27T10:30:53.900Z,20.50
2022-07-27T10:33:45.082Z,20.50
2022-07-27T10:36:38.886Z,20.50
2022-07-27T10:39:10.493Z,20.40
2022-07-27T10:41:45.448Z,20.40
2022-07-27T10:44:23.939Z,20.50
2022-07-27T10:46:55.218Z,20.50
2022-07-27T10:49:27.413Z,20.50
2022-07-27T10:51:59.881Z,20.40
2022-07-27T10:54:37.972Z,20.40
2022-07-27T10:57:11.474Z,20.40
2022-07-27T11:02:43.644Z,20.40
2022-07-27T11:05:42.592Z,20.40
2022-07-27T11:08:35.283Z,20.40
2022-07-27T11:10:56.509Z,20.40
2022-07-27T11:13:32.013Z,20.40
2022-07-27T11:16:27.997Z,20.40
2022-07-27T11:19:08.274Z,20.30
2022-07-27T11:21:41.655Z,20.40
2022-07-27T11:24:20.475Z,20.40
2022-07-27T11:26:55.240Z,20.40
2022-07-27T11:29:27.301Z,20.40
2022-07-27T11:32:01.220Z,20.40
2022-07-27T11:34:37.023Z,20.40
2022-07-27T11:37:16.645Z,20.40
2022-07-27T11:40:00.247Z,20.40
2022-07-27T11:42:42.274Z,20.30
2022-07-27T11:45:13.114Z,20.30
2022-07-27T11:47:43.511Z,20.30
2022-07-27T11:50:15.468Z,20.30
2022-07-27T11:52:45.918Z,20.30
2022-07-27T11:55:16.202Z,20.30
2022-07-27T11:57:46.653Z,20.30
2022-07-27T12:00:17.289Z,20.30
2022-07-27T12:02:54.336Z,20.30
2022-07-27T12:05:24.743Z,20.30
2022-07-27T12:07:56.481Z,20.30
2022-07-27T12:10:26.814Z,20.30
2022-07-27T12:12:57.096Z,20.30
2022-07-27T12:18:17.518Z,20.30
2022-07-27T12:20:50.286Z,20.30
2022-07-27T12:23:21.056Z,20.30
2022-07-27T12:25:51.402Z,20.30
2022-07-27T12:28:27.470Z,20.30
2022-07-27T12:30:57.904Z,20.30
2022-07-27T12:33:39.512Z,20.20
2022-07-27T12:36:11.459Z,20.20
2022-07-27T12:38:47.476Z,20.20
2022-07-27T12:41:39.405Z,20.10
2022-07-27T12:44:25.411Z,20.10
2022-07-27T12:47:25.410Z,20.10
2022-07-27T12:50:08.976Z,20.00
2022-07-27T12:52:45.729Z,20.00
2022-07-27T12:55:17.768Z,20.00
2022-07-27T12:57:56.945Z,20.00
2022-07-27T13:00:34.042Z,19.90
2022-07-27T13:03:06.021Z,19.90
2022-07-27T13:05:37.725Z,19.90
2022-07-27T13:08:08.598Z,19.80
2022-07-27T13:10:39.488Z,19.80
2022-07-27T13:13:11.014Z,19.80
2022-07-27T13:15:41.374Z,19.70
2022-07-27T13:18:11.586Z,19.70
2022-07-27T13:20:44.123Z,19.70
2022-07-27T13:23:15.427Z,19.70
2022-07-27T13:25:45.894Z,19.60
2022-07-27T13:28:16.210Z,19.60
2022-07-27T13:30:47.056Z,19.60
2022-07-27T13:33:17.544Z,19.50
2022-07-27T13:35:49.172Z,19.50
2022-07-27T13:38:32.281Z,19.50
2022-07-27T13:41:02.719Z,19.40
2022-07-27T13:43:32.985Z,19.40
2022-07-27T13:46:05.138Z,19.40
2022-07-27T13:48:35.475Z,19.40
2022-07-27T13:51:06.465Z,19.30
2022-07-27T13:53:36.828Z,19.30
2022-07-27T13:56:09.217Z,19.30
2022-07-27T13:58:42.604Z,19.20
2022-07-27T14:01:15.367Z,19.20
2022-07-27T14:03:45.717Z,19.20
2022-07-27T14:06:16.976Z,19.20
2022-07-27T14:08:47.945Z,19.10
2022-07-27T14:11:18.586Z,19.10
2022-07-27T14:13:48.939Z,19.10
2022-07-27T14:16:19.627Z,19.00
2022-07-27T14:18:50.171Z,19.00
2022-07-27T14:21:20.961Z,19.00
2022-07-27T14:23:51.503Z,19.00
2022-07-27T14:26:25.030Z,18.90
2022-07-27T14:28:56.381Z,18.90
2022-07-27T14:31:26.754Z,18.90
2022-07-27T14:33:57.118Z,18.90
2022-07-27T14:36:27.399Z,18.80
2022-07-27T14:38:57.690Z,18.80
2022-07-27T14:41:28.248Z,18.80
2022-07-27T14:43:58.405Z,18.80
2022-07-27T14:46:29.173Z,18.80
2022-07-27T14:49:07.078Z,18.70
2022-07-27T14:51:38.535Z,18.70
2022-07-27T14:54:09.326Z,18.60
2022-07-27T14:56:39.825Z,18.60
2022-07-27T14:59:10.516Z,18.60
2022-07-27T15:01:42.588Z,18.60
2022-07-27T15:04:12.976Z,18.60
2022-07-27T15:06:43.303Z,18.50
2022-07-27T15:09:14.235Z,18.50
2022-07-27T15:11:45.292Z,18.50
2022-07-27T15:14:18.405Z,18.50
2022-07-27T15:16:48.848Z,18.40
2022-07-27T15:19:19.118Z,18.40
2022-07-27T15:21:49.669Z,18.40
2022-07-27T15:24:20.038Z,18.40
2022-07-27T15:26:50.595Z,18.40
2022-07-27T15:29:20.841Z,18.30
2022-07-27T15:31:51.509Z,18.30
2022-07-27T15:34:22.328Z,18.30
2022-07-27T15:36:52.966Z,18.30
2022-07-27T15:39:24.704Z,18.30
2022-07-27T15:41:55.356Z,18.20
2022-07-27T15:44:28.633Z,18.20
2022-07-27T15:46:59.230Z,18.20
2022-07-27T15:49:29.948Z,18.20
2022-07-27T15:52:13.170Z,18.20
2022-07-27T15:54:45.546Z,18.10
2022-07-27T15:57:16.023Z,18.10
2022-07-27T15:59:46.173Z,18.10
2022-07-27T16:02:16.623Z,18.10
2022-07-27T16:04:55.909Z,18.00
2022-07-27T16:07:27.081Z,18.00
2022-07-27T16:10:15.977Z,18.00
2022-07-27T16:12:46.438Z,18.00
2022-07-27T16:15:16.671Z,18.00
2022-07-27T16:17:46.936Z,18.00
2022-07-27T16:20:17.057Z,17.90
2022-07-27T16:22:47.308Z,17.90
2022-07-27T16:25:17.562Z,17.90
2022-07-27T16:27:47.847Z,17.90
2022-07-27T16:30:20.606Z,17.80
2022-07-27T16:32:51.354Z,17.80
2022-07-27T16:35:21.596Z,17.80
2022-07-27T16:37:52.074Z,17.80
2022-07-27T16:40:22.765Z,17.80
2022-07-27T16:42:53.526Z,17.80
2022-07-27T16:45:23.774Z,17.70
2022-07-27T16:47:54.350Z,17.70
2022-07-27T16:50:25.252Z,17.70
2022-07-27T16:52:55.441Z,17.70
2022-07-27T16:55:27.400Z,17.70
2022-07-27T16:57:58.093Z,17.70
2022-07-27T17:00:28.555Z,17.70
2022-07-27T17:02:59.079Z,17.60
2022-07-27T17:05:29.762Z,17.60
2022-07-27T17:08:00.118Z,17.60
2022-07-27T17:10:31.176Z,17.60
2022-07-27T17:13:01.748Z,17.60
2022-07-27T17:15:32.213Z,17.50
2022-07-27T17:18:04.143Z,17.50
2022-07-27T17:20:35.441Z,17.50
2022-07-27T17:23:09.499Z,17.50
2022-07-27T17:25:40.038Z,17.50
2022-07-27T17:28:10.439Z,17.50
2022-07-27T17:30:40.743Z,17.40
2022-07-27T17:33:11.268Z,17.40
2022-07-27T17:35:41.441Z,17.40
2022-07-27T17:38:17.619Z,17.40
2022-07-27T17:40:47.846Z,17.40
2022-07-27T17:43:18.236Z,17.30
2022-07-27T17:45:48.563Z,17.30
2022-07-27T17:48:19.130Z,17.30
2022-07-27T17:50:49.456Z,17.30
2022-07-27T17:53:22.558Z,17.30
2022-07-27T17:55:52.801Z,17.20
2022-07-27T17:58:26.716Z,17.20
2022-07-27T18:01:00.612Z,17.20
2022-07-27T18:03:31.798Z,17.20
2022-07-27T18:06:03.358Z,17.20
2022-07-27T18:08:34.123Z,17.20
2022-07-27T18:11:05.224Z,17.10
2022-07-27T18:13:39.669Z,17.10
2022-07-27T18:16:14.970Z,17.10
2022-07-27T18:18:47.213Z,17.10
2022-07-27T18:21:17.548Z,17.10
2022-07-27T18:23:48.538Z,17.00
2022-07-27T18:26:18.882Z,17.00
2022-07-27T18:28:49.792Z,17.00
2022-07-27T18:31:20.967Z,17.00
2022-07-27T18:33:53.410Z,17.00
2022-07-27T18:36:24.353Z,17.00
2022-07-27T18:38:55.171Z,17.00
2022-07-27T18:41:26.530Z,16.90
2022-07-27T18:43:57.703Z,17.00
2022-07-27T18:46:28.031Z,16.90
2022-07-27T18:48:58.536Z,16.90
2022-07-27T18:51:31.381Z,16.90
2022-07-27T18:54:02.275Z,16.90
2022-07-27T18:56:32.567Z,16.80
2022-07-27T18:59:02.951Z,16.80
2022-07-27T19:01:33.462Z,16.80
2022-07-27T19:04:04.531Z,16.80
2022-07-27T19:06:35.881Z,16.80
2022-07-27T19:09:07.055Z,16.80
2022-07-27T19:11:37.582Z,16.70
2022-07-27T19:14:08.181Z,16.70
2022-07-27T19:16:38.734Z,16.70
2022-07-27T19:19:13.564Z,16.70
2022-07-27T19:21:46.244Z,16.70
2022-07-27T19:24:16.639Z,16.70
2022-07-27T19:26:46.818Z,16.60
2022-07-27T19:29:19.905Z,16.60
2022-07-27T19:31:50.592Z,16.60
2022-07-27T19:34:21.292Z,16.60
2022-07-27T19:36:51.594Z,16.60
2022-07-27T19:39:21.885Z,16.60
2022-07-27T19:41:52.171Z,16.50
2022-07-27T19:44:22.675Z,16.50
2022-07-27T19:46:53.097Z,16.50
2022-07-27T19:49:27.414Z,16.50
2022-07-27T19:51:57.609Z,16.50
2022-07-27T19:57:13.280Z,16.50
2022-07-27T19:59:56.039Z,16.40
2022-07-27T20:02:30.409Z,16.40
2022-07-27T20:05:09.219Z,16.40
2022-07-27T20:07:43.339Z,16.40
2022-07-27T20:10:14.104Z,16.40
2022-07-27T20:12:44.287Z,16.40
2022-07-27T20:15:14.611Z,16.40
2022-07-27T20:17:45.055Z,16.30
2022-07-27T20:20:18.483Z,16.30
2022-07-27T20:22:52.250Z,16.30
2022-07-27T20:25:33.547Z,16.30
2022-07-27T20:28:04.760Z,16.30
2022-07-27T20:33:22.872Z,16.20
2022-07-27T20:36:00.669Z,16.20
2022-07-27T20:38:30.906Z,16.20
2022-07-27T20:41:01.243Z,16.20
2022-07-27T20:43:32.816Z,16.20
2022-07-27T20:46:03.673Z,16.20
2022-07-27T20:48:35.089Z,16.20
2022-07-27T20:51:12.081Z,16.10
2022-07-27T20:53:53.273Z,16.10
2022-07-27T20:59:16.506Z,16.10
2022-07-27T21:01:47.984Z,16.10
2022-07-27T21:04:20.620Z,16.10
2022-07-27T21:06:52.564Z,16.10
2022-07-27T21:09:23.719Z,16.10
2022-07-27T21:11:54.154Z,16.00
2022-07-27T21:14:41.542Z,16.00
2022-07-27T21:17:12.553Z,16.00
2022-07-27T21:19:43.019Z,16.00
2022-07-27T21:22:13.577Z,16.00
2022-07-27T21:24:46.670Z,16.00
2022-07-27T21:27:21.214Z,15.90
2022-07-27T21:29:51.857Z,16.00
2022-07-27T21:32:22.508Z,15.90
2022-07-27T21:34:52.797Z,15.90
2022-07-27T21:37:23.366Z,15.90
2022-07-27T21:39:53.568Z,16.00
2022-07-27T21:42:23.960Z,16.00
2022-07-27T21:44:57.207Z,16.10
2022-07-27T21:47:27.856Z,16.20
2022-07-27T21:49:58.066Z,16.30
2022-07-27T21:52:28.588Z,16.40
2022-07-27T21:54:58.810Z,16.50
2022-07-27T21:57:29.130Z,16.60
2022-07-27T21:59:59.287Z,16.70
2022-07-27T22:02:29.603Z,16.80
2022-07-27T22:05:00.638Z,16.90
2022-07-27T22:07:43.037Z,17.00
2022-07-27T22:10:13.596Z,17.00
2022-07-27T22:12:43.911Z,17.10
2022-07-27T22:15:14.415Z,17.10
2022-07-27T22:17:51.141Z,17.20
2022-07-27T22:20:23.402Z,17.30
2022-07-27T22:22:53.748Z,17.30
2022-07-27T22:25:24.281Z,17.30
2022-07-27T22:27:54.549Z,17.40
2022-07-27T22:30:25.131Z,17.40
2022-07-27T22:32:55.476Z,17.50
2022-07-27T22:35:27.008Z,17.50
2022-07-27T22:37:57.258Z,17.50
2022-07-27T22:40:27.535Z,17.60
2022-07-27T22:42:57.822Z,17.60
2022-07-27T22:45:28.289Z,17.60
2022-07-27T22:48:01.826Z,18.00
2022-07-27T22:50:32.176Z,18.60
2022-07-27T22:53:02.486Z,19.30
2022-07-27T22:55:32.866Z,19.80
2022-07-27T22:58:03.104Z,19.70
2022-07-27T23:00:33.694Z,19.80
2022-07-27T23:03:04.565Z,20.00
2022-07-27T23:05:34.950Z,20.40
2022-07-27T23:08:05.179Z,20.40
2022-07-27T23:10:47.593Z,20.70
2022-07-27T23:13:19.784Z,20.50
2022-07-27T23:15:50.804Z,20.80
2022-07-27T23:18:22.376Z,20.90
2022-07-27T23:20:52.716Z,20.90
2022-07-27T23:23:23.112Z,21.10
2022-07-27T23:25:57.775Z,21.20
2022-07-27T23:28:28.209Z,21.20
2022-07-27T23:30:58.502Z,21.50
2022-07-27T23:33:28.700Z,21.40
2022-07-27T23:35:59.120Z,21.50
2022-07-27T23:38:32.435Z,21.60
2022-07-27T23:41:02.908Z,21.50
2022-07-27T23:43:33.137Z,21.70
2022-07-27T23:46:03.428Z,21.70
2022-07-27T23:48:33.714Z,21.70
2022-07-27T23:51:04.089Z,21.90
2022-07-27T23:53:34.287Z,21.80
2022-07-27T23:56:04.721Z,21.90
2022-07-27T23:58:34.887Z,22.00
